createdAt,value
2022-11-19T00:00:10.492Z,15.10
2022-11-19T00:02:37.294Z,14.80
2022-11-19T00:05:04.228Z,13.80
2022-11-19T00:07:30.914Z,14.00
2022-11-19T00:09:57.601Z,13.80
2022-11-19T00:12:43.065Z,13.40
2022-11-19T00:15:09.810Z,13.40
2022-11-19T00:17:36.448Z,13.50
2022-11-19T00:20:03.180Z,13.00
2022-11-19T00:22:29.830Z,13.20
2022-11-19T00:24:56.584Z,13.00
2022-11-19T00:27:23.352Z,11.90
2022-11-19T00:29:50.364Z,10.80
2022-11-19T00:32:17.041Z,10.70
2022-11-19T00:34:43.673Z,10.50
2022-11-19T00:37:10.431Z,10.10
2022-11-19T00:39:37.072Z,10.10
2022-11-19T00:42:03.888Z,9.10
2022-11-19T00:44:36.740Z,9.60
2022-11-19T00:47:04.065Z,9.80
2022-11-19T00:49:30.748Z,9.80
2022-11-19T00:51:57.449Z,10.30
2022-11-19T00:54:24.088Z,8.60
2022-11-19T00:56:50.783Z,9.10
2022-11-19T00:59:17.727Z,8.50
2022-11-19T01:01:44.602Z,8.60
2022-11-19T01:04:11.282Z,9.30
2022-11-19T01:06:37.941Z,10.10
2022-11-19T01:09:04.621Z,8.30
2022-11-19T01:11:32.699Z,8.60
2022-11-19T01:13:59.700Z,8.80
2022-11-19T01:16:29.917Z,8.90
2022-11-19T01:18:56.715Z,8.80
2022-11-19T01:21:24.954Z,7.70
2022-11-19T01:23:51.847Z,8.10
2022-11-19T01:26:18.821Z,8.60
2022-11-19T01:28:45.467Z,8.60
2022-11-19T01:31:17.069Z,9.10
2022-11-19T01:33:43.753Z,8.20
2022-11-19T01:36:15.469Z,9.00
2022-11-19T01:38:42.310Z,8.90
2022-11-19T01:41:09.172Z,9.20
2022-11-19T01:43:47.330Z,8.40
2022-11-19T01:46:15.961Z,8.40
2022-11-19T01:48:49.305Z,8.40
2022-11-19T01:51:29.130Z,8.40
2022-11-19T01:53:58.213Z,8.70
2022-11-19T01:56:24.972Z,8.10
2022-11-19T01:58:55.772Z,8.40
2022-11-19T02:01:22.660Z,8.80
2022-11-19T02:03:49.527Z,8.10
2022-11-19T02:06:16.192Z,8.20
2022-11-19T02:08:43.677Z,8.40
2022-11-19T02:11:32.875Z,8.90
2022-11-19T02:14:03.282Z,9.30
2022-11-19T02:16:48.269Z,8.30
2022-11-19T02:19:33.497Z,8.70
2022-11-19T02:22:34.420Z,8.30
2022-11-19T02:25:39.458Z,8.60
2022-11-19T02:28:26.544Z,7.60
2022-11-19T02:30:54.484Z,7.20
2022-11-19T02:33:34.479Z,7.10
2022-11-19T02:36:23.853Z,7.00
2022-11-19T02:38:54.122Z,6.80
2022-11-19T02:41:38.874Z,6.70
2022-11-19T02:44:42.094Z,7.00
2022-11-19T02:47:12.523Z,8.20
2022-11-19T02:49:42.162Z,7.20
2022-11-19T02:52:08.810Z,7.10
2022-11-19T02:54:35.424Z,6.80
2022-11-19T02:57:02.900Z,7.00
2022-11-19T03:00:11.812Z,7.10
2022-11-19T03:03:01.307Z,6.70
2022-11-19T03:05:29.609Z,6.80
2022-11-19T03:07:56.347Z,6.20
2022-11-19T03:10:24.233Z,6.20
2022-11-19T03:13:39.256Z,6.40
2022-11-19T03:18:55.504Z,5.60
2022-11-19T03:21:33.377Z,5.80
2022-11-19T03:24:01.439Z,5.60
2022-11-19T03:26:33.824Z,6.40
2022-11-19T03:29:02.582Z,6.10
2022-11-19T03:31:29.529Z,5.90
2022-11-19T03:33:58.886Z,6.10
2022-11-19T03:36:39.232Z,6.00
2022-11-19T03:39:08.877Z,6.10
2022-11-19T03:41:36.114Z,6.20
2022-11-19T03:44:31.979Z,6.00
2022-11-19T03:47:01.563Z,5.00
2022-11-19T03:49:31.705Z,5.20
2022-11-19T03:52:11.877Z,5.00
2022-11-19T03:54:39.277Z,5.40
2022-11-19T03:57:06.824Z,5.40
2022-11-19T03:59:33.515Z,5.30
2022-11-19T04:02:02.493Z,6.40
2022-11-19T04:04:38.352Z,5.30
2022-11-19T04:07:11.932Z,5.40
2022-11-19T04:09:39.471Z,5.30
2022-11-19T04:12:06.672Z,5.80
2022-11-19T04:14:33.388Z,6.10
2022-11-19T04:17:00.096Z,6.50
2022-11-19T04:19:26.804Z,6.20
2022-11-19T04:21:53.471Z,6.80
2022-11-19T04:24:20.179Z,6.50
2022-11-19T04:26:46.810Z,7.00
2022-11-19T04:29:13.504Z,6.70
2022-11-19T04:31:40.356Z,6.50
2022-11-19T04:34:07.032Z,6.10
2022-11-19T04:36:33.847Z,5.70
2022-11-19T04:39:00.575Z,5.90
2022-11-19T04:41:27.253Z,5.90
2022-11-19T04:43:53.871Z,6.20
2022-11-19T04:46:20.596Z,6.20
2022-11-19T04:48:47.298Z,6.80
2022-11-19T04:51:13.958Z,6.20
2022-11-19T04:53:40.647Z,5.70
2022-11-19T04:56:07.664Z,6.00
2022-11-19T04:58:34.844Z,6.90
2022-11-19T05:01:01.590Z,6.80
2022-11-19T05:03:28.391Z,5.90
2022-11-19T05:05:55.022Z,7.00
2022-11-19T05:08:21.692Z,6.40
2022-11-19T05:10:48.970Z,6.30
2022-11-19T05:13:15.623Z,6.70
2022-11-19T05:15:42.274Z,6.30
2022-11-19T05:18:08.913Z,7.90
2022-11-19T05:20:35.547Z,6.40
2022-11-19T05:23:02.224Z,6.80
2022-11-19T05:25:29.011Z,6.00
2022-11-19T05:27:55.601Z,6.10
2022-11-19T05:30:22.345Z,6.30
2022-11-19T05:32:48.980Z,6.40
2022-11-19T05:35:15.638Z,16.10
2022-11-19T05:37:42.302Z,6.30
2022-11-19T05:40:09.547Z,5.70
2022-11-19T05:42:36.204Z,6.20
2022-11-19T05:45:02.994Z,6.10
2022-11-19T05:47:29.639Z,5.70
2022-11-19T05:49:56.295Z,6.00
2022-11-19T05:52:23.084Z,5.40
2022-11-19T05:54:49.733Z,5.60
2022-11-19T05:57:16.479Z,6.10
2022-11-19T05:59:44.186Z,5.50
2022-11-19T06:02:11.270Z,6.90
2022-11-19T06:04:38.120Z,5.60
2022-11-19T06:07:04.888Z,5.50
2022-11-19T06:09:32.551Z,6.40
2022-11-19T06:11:59.212Z,5.60
2022-11-19T06:14:26.497Z,5.50
2022-11-19T06:16:54.985Z,5.40
2022-11-19T06:19:22.082Z,6.80
2022-11-19T06:21:49.261Z,5.80
2022-11-19T06:24:15.958Z,5.40
2022-11-19T06:26:43.012Z,6.50
2022-11-19T06:29:10.622Z,6.90
2022-11-19T06:31:37.455Z,6.40
2022-11-19T06:34:04.100Z,6.20
2022-11-19T06:36:37.311Z,7.10
2022-11-19T06:39:05.788Z,7.80
2022-11-19T06:41:32.736Z,8.00
2022-11-19T06:45:54.585Z,7.70
2022-11-19T06:48:21.468Z,8.50
2022-11-19T06:50:48.108Z,7.40
2022-11-19T06:53:14.768Z,8.70
2022-11-19T06:55:41.417Z,9.20
2022-11-19T06:58:08.217Z,8.90
2022-11-19T07:00:35.061Z,8.20
2022-11-19T07:03:01.796Z,8.10
2022-11-19T07:05:28.486Z,8.00
2022-11-19T07:07:58.839Z,8.10
2022-11-19T07:10:28.325Z,9.40
2022-11-19T07:12:55.002Z,10.90
2022-11-19T07:15:21.646Z,11.30
2022-11-19T07:17:48.890Z,16.70
2022-11-19T07:20:15.964Z,10.20
2022-11-19T07:22:42.705Z,8.40
2022-11-19T07:25:12.735Z,10.40
2022-11-19T07:27:43.416Z,8.50
2022-11-19T07:30:10.822Z,8.00
2022-11-19T07:32:37.424Z,9.00
2022-11-19T07:35:04.594Z,8.70
2022-11-19T07:37:31.464Z,7.60
2022-11-19T07:39:58.168Z,12.30
2022-11-19T07:42:43.549Z,9.50
2022-11-19T07:45:10.453Z,13.40
2022-11-19T07:47:37.040Z,9.80
2022-11-19T07:50:04.268Z,6.90
2022-11-19T07:52:31.191Z,6.90
2022-11-19T07:54:57.860Z,7.40
2022-11-19T07:57:29.929Z,9.60
2022-11-19T07:59:57.037Z,7.50
2022-11-19T08:02:23.671Z,6.80
2022-11-19T08:04:50.402Z,6.30
2022-11-19T08:07:17.143Z,5.70
2022-11-19T08:09:44.025Z,5.70
2022-11-19T08:12:10.753Z,6.20
2022-11-19T08:14:37.447Z,5.80
2022-11-19T08:17:22.832Z,5.50
2022-11-19T08:19:49.545Z,6.30
2022-11-19T08:22:16.223Z,7.30
2022-11-19T08:24:42.910Z,7.30
2022-11-19T08:27:09.667Z,8.00
2022-11-19T08:29:36.572Z,8.60
2022-11-19T08:32:04.391Z,9.90
2022-11-19T08:34:32.267Z,8.80
2022-11-19T08:36:58.915Z,8.50
2022-11-19T08:39:25.584Z,7.00
2022-11-19T08:42:10.930Z,10.60
2022-11-19T08:44:37.712Z,7.80
2022-11-19T08:47:29.463Z,8.60
2022-11-19T08:49:56.230Z,8.30
2022-11-19T08:52:22.944Z,7.00
2022-11-19T08:54:50.024Z,8.70
2022-11-19T08:57:16.712Z,9.90
2022-11-19T08:59:43.498Z,8.80
2022-11-19T09:02:10.917Z,8.20
2022-11-19T09:04:37.791Z,8.70
2022-11-19T09:07:04.538Z,8.30
2022-11-19T09:09:31.405Z,7.50
2022-11-19T09:11:58.056Z,8.20
2022-11-19T09:14:24.943Z,8.80
2022-11-19T09:16:51.730Z,9.00
2022-11-19T09:19:18.618Z,9.70
2022-11-19T09:21:45.626Z,8.90
2022-11-19T09:24:12.412Z,9.30
2022-11-19T09:26:39.174Z,8.90
2022-11-19T09:29:05.874Z,8.00
2022-11-19T09:31:32.514Z,9.40
2022-11-19T09:33:59.173Z,9.20
2022-11-19T09:36:25.912Z,9.80
2022-11-19T09:38:56.768Z,12.00
2022-11-19T09:41:53.392Z,10.60
2022-11-19T09:44:38.427Z,10.20
2022-11-19T09:47:21.511Z,11.90
2022-11-19T09:50:12.277Z,14.60
2022-11-19T09:52:43.067Z,14.00
2022-11-19T09:55:15.509Z,16.40
2022-11-19T09:57:55.513Z,12.90
2022-11-19T10:00:24.061Z,12.30
2022-11-19T10:02:50.969Z,10.50
2022-11-19T10:05:43.119Z,10.00
2022-11-19T10:08:47.722Z,11.00
2022-11-19T10:11:25.327Z,13.10
2022-11-19T10:14:34.961Z,12.40
2022-11-19T10:17:25.562Z,11.50
2022-11-19T10:19:52.317Z,9.30
2022-11-19T10:22:24.539Z,9.60
2022-11-19T10:25:14.686Z,9.70
2022-11-19T10:27:57.784Z,11.30
2022-11-19T10:30:25.956Z,12.40
2022-11-19T10:33:03.940Z,11.20
2022-11-19T10:35:33.331Z,11.40
2022-11-19T10:38:02.267Z,10.20
2022-11-19T10:40:33.440Z,10.60
2022-11-19T10:43:18.140Z,14.40
2022-11-19T10:45:47.332Z,9.30
2022-11-19T10:48:20.199Z,9.90
2022-11-19T10:50:47.213Z,9.70
2022-11-19T10:53:25.116Z,10.20
2022-11-19T10:55:56.327Z,12.50
2022-11-19T10:58:24.196Z,12.90
2022-11-19T11:00:52.860Z,11.10
2022-11-19T11:03:29.124Z,11.00
2022-11-19T11:06:06.395Z,11.40
2022-11-19T11:08:33.642Z,11.40
2022-11-19T11:11:00.328Z,10.20
2022-11-19T11:13:55.027Z,11.50
2022-11-19T11:16:24.602Z,9.80
2022-11-19T11:18:51.526Z,9.40
2022-11-19T11:21:28.561Z,9.90
2022-11-19T11:23:55.468Z,12.80
2022-11-19T11:26:27.090Z,10.60
2022-11-19T11:28:58.239Z,11.40
2022-11-19T11:31:36.342Z,11.60
2022-11-19T11:34:03.675Z,11.90
2022-11-19T11:36:32.309Z,11.60
2022-11-19T11:39:01.057Z,11.20
2022-11-19T11:42:04.983Z,12.40
2022-11-19T11:44:29.633Z,11.90
2022-11-19T11:47:24.494Z,10.70
2022-11-19T11:50:08.266Z,11.90
2022-11-19T11:52:43.161Z,12.00
2022-11-19T11:55:22.784Z,11.60
2022-11-19T11:57:54.440Z,12.60
2022-11-19T12:00:31.907Z,12.00
2022-11-19T12:03:05.662Z,12.10
2022-11-19T12:05:42.003Z,13.30
2022-11-19T12:08:27.099Z,14.00
2022-11-19T12:11:50.642Z,12.20
2022-11-19T12:14:21.374Z,11.20
2022-11-19T12:17:26.192Z,11.10
2022-11-19T12:20:21.766Z,9.50
2022-11-19T12:23:01.672Z,10.90
2022-11-19T12:25:40.640Z,10.50
2022-11-19T12:28:43.519Z,10.00
2022-11-19T12:31:54.908Z,9.10
2022-11-19T12:34:24.522Z,9.70
2022-11-19T12:36:56.990Z,10.20
2022-11-19T12:39:47.191Z,10.00
2022-11-19T12:42:45.934Z,11.40
2022-11-19T12:45:27.181Z,10.90
2022-11-19T12:48:18.438Z,10.50
2022-11-19T12:50:58.343Z,10.80
2022-11-19T12:53:25.016Z,12.10
2022-11-19T12:56:13.314Z,12.10
2022-11-19T12:58:55.218Z,11.60
2022-11-19T13:01:25.487Z,10.80
2022-11-19T13:04:12.950Z,10.70
2022-11-19T13:06:50.088Z,11.30
2022-11-19T13:09:29.626Z,12.30
2022-11-19T13:12:04.432Z,12.00
2022-11-19T13:14:38.785Z,11.70
2022-11-19T13:17:06.898Z,11.70
2022-11-19T13:19:34.815Z,13.40
2022-11-19T13:22:07.193Z,14.90
2022-11-19T13:24:39.064Z,15.10
2022-11-19T13:27:07.651Z,14.10
2022-11-19T13:29:36.716Z,14.40
2022-11-19T13:32:10.982Z,11.30
2022-11-19T13:34:47.446Z,14.60
2022-11-19T13:37:16.951Z,14.40
2022-11-19T13:39:47.701Z,13.80
2022-11-19T13:42:33.150Z,12.30
2022-11-19T13:44:59.964Z,11.70
2022-11-19T13:47:37.753Z,11.10
2022-11-19T13:50:14.702Z,11.10
2022-11-19T13:53:01.772Z,11.80
2022-11-19T13:55:28.475Z,13.20
2022-11-19T13:57:55.098Z,14.60
2022-11-19T14:00:28.488Z,12.20
2022-11-19T14:03:14.453Z,13.40
2022-11-19T14:05:47.156Z,14.40
2022-11-19T14:08:40.409Z,14.30
2022-11-19T14:11:07.124Z,14.30
2022-11-19T14:13:49.137Z,15.00
2022-11-19T14:16:46.870Z,15.40
2022-11-19T14:19:33.743Z,14.40
2022-11-19T14:22:19.656Z,14.30
2022-11-19T14:25:05.116Z,17.70
2022-11-19T14:27:32.532Z,16.40
2022-11-19T14:30:07.568Z,16.70
2022-11-19T14:32:44.008Z,15.40
2022-11-19T14:35:25.431Z,16.60
2022-11-19T14:37:54.098Z,14.90
2022-11-19T14:40:23.283Z,20.90
2022-11-19T14:43:20.988Z,35.70
2022-11-19T14:46:10.862Z,20.80
2022-11-19T14:48:40.763Z,19.20
2022-11-19T14:51:09.278Z,25.90
2022-11-19T14:54:00.488Z,23.30
2022-11-19T14:56:27.164Z,19.90
2022-11-19T14:58:56.359Z,17.30
2022-11-19T15:01:23.282Z,20.40
2022-11-19T15:04:01.407Z,26.70
2022-11-19T15:06:28.469Z,40.20
2022-11-19T15:08:59.096Z,46.30
2022-11-19T15:11:25.748Z,24.10
2022-11-19T15:14:29.808Z,15.50
2022-11-19T15:16:58.059Z,16.90
2022-11-19T15:19:36.987Z,20.60
2022-11-19T15:22:10.834Z,20.60
2022-11-19T15:24:46.744Z,18.80
2022-11-19T15:27:37.713Z,20.30
2022-11-19T15:30:27.732Z,20.60
2022-11-19T15:33:09.657Z,21.20
2022-11-19T15:36:02.145Z,34.50
2022-11-19T15:38:48.585Z,24.40
2022-11-19T15:41:18.207Z,23.20
2022-11-19T15:43:46.440Z,19.00
2022-11-19T15:46:20.290Z,17.70
2022-11-19T15:49:05.444Z,18.10
2022-11-19T15:51:38.823Z,21.60
2022-11-19T15:54:11.029Z,23.00
2022-11-19T15:56:38.897Z,16.90
2022-11-19T15:59:08.566Z,17.50
2022-11-19T16:01:35.252Z,16.80
2022-11-19T16:04:07.646Z,17.60
2022-11-19T16:06:34.439Z,13.30
2022-11-19T16:09:04.832Z,14.80
2022-11-19T16:11:52.520Z,13.90
2022-11-19T16:14:48.208Z,14.90
2022-11-19T16:17:43.618Z,15.00
2022-11-19T16:20:10.986Z,16.50
2022-11-19T16:22:39.977Z,16.60
2022-11-19T16:25:12.811Z,19.20
2022-11-19T16:27:43.110Z,19.00
2022-11-19T16:30:20.850Z,16.90
2022-11-19T16:32:48.243Z,17.30
2022-11-19T16:35:29.046Z,18.10
2022-11-19T16:37:55.876Z,23.00
2022-11-19T16:40:22.580Z,17.30
2022-11-19T16:42:56.750Z,18.90
2022-11-19T16:45:25.736Z,22.30
2022-11-19T16:47:57.283Z,18.40
2022-11-19T16:50:25.283Z,20.50
2022-11-19T16:52:51.961Z,19.60
2022-11-19T16:55:18.616Z,24.50
2022-11-19T16:57:49.503Z,24.50
2022-11-19T17:00:18.159Z,18.80
2022-11-19T17:02:44.962Z,17.40
2022-11-19T17:05:22.394Z,15.50
2022-11-19T17:07:49.930Z,16.50
2022-11-19T17:10:19.924Z,20.40
2022-11-19T17:12:51.496Z,20.50
2022-11-19T17:15:33.460Z,20.00
2022-11-19T17:18:32.861Z,19.50
2022-11-19T17:21:06.736Z,17.30
2022-11-19T17:26:03.064Z,16.70
2022-11-19T17:28:45.383Z,17.30
2022-11-19T17:31:16.961Z,17.50
2022-11-19T17:34:18.087Z,24.30
2022-11-19T17:36:45.178Z,20.30
2022-11-19T17:39:12.237Z,17.90
2022-11-19T17:41:57.562Z,18.70
2022-11-19T17:44:40.412Z,15.90
2022-11-19T17:47:20.826Z,18.20
2022-11-19T17:49:49.151Z,15.30
2022-11-19T17:52:25.025Z,15.00
2022-11-19T17:54:52.838Z,17.50
2022-11-19T17:57:19.716Z,17.40
2022-11-19T17:59:46.541Z,17.40
2022-11-19T18:02:14.738Z,19.30
2022-11-19T18:04:46.562Z,19.30
2022-11-19T18:07:13.384Z,20.10
2022-11-19T18:09:40.349Z,19.10
2022-11-19T18:12:08.118Z,18.50
2022-11-19T18:14:35.259Z,17.90
2022-11-19T18:17:02.089Z,18.40
2022-11-19T18:19:29.074Z,17.60
2022-11-19T18:21:55.871Z,17.30
2022-11-19T18:24:22.686Z,16.10
2022-11-19T18:26:49.546Z,17.40
2022-11-19T18:29:16.288Z,15.40
2022-11-19T18:31:47.750Z,16.10
2022-11-19T18:34:18.148Z,15.30
2022-11-19T18:36:45.044Z,14.00
2022-11-19T18:39:11.689Z,12.50
2022-11-19T18:41:38.704Z,17.10
2022-11-19T18:44:24.137Z,14.90
2022-11-19T18:46:50.938Z,13.10
2022-11-19T18:49:17.957Z,16.20
2022-11-19T18:51:44.933Z,20.70
2022-11-19T18:54:12.145Z,28.00
2022-11-19T18:56:39.097Z,27.90
2022-11-19T18:59:05.859Z,24.00
2022-11-19T19:01:32.877Z,17.60
2022-11-19T19:04:42.946Z,19.80
2022-11-19T19:07:10.339Z,15.00
2022-11-19T19:09:37.446Z,16.00
2022-11-19T19:12:19.578Z,20.90
2022-11-19T19:14:48.235Z,24.30
2022-11-19T19:17:15.406Z,16.60
2022-11-19T19:19:42.113Z,13.60
2022-11-19T19:22:09.428Z,13.40
2022-11-19T19:24:36.339Z,18.40
2022-11-19T19:27:03.128Z,15.80
2022-11-19T19:29:29.904Z,16.60
2022-11-19T19:31:58.025Z,18.30
2022-11-19T19:34:24.705Z,19.60
2022-11-19T19:36:53.463Z,20.50
2022-11-19T19:39:20.796Z,21.60
2022-11-19T19:41:49.094Z,22.00
2022-11-19T19:44:15.835Z,17.30
2022-11-19T19:46:42.497Z,17.10
2022-11-19T19:49:09.186Z,15.00
2022-11-19T19:51:35.951Z,14.30
2022-11-19T19:54:02.674Z,13.70
2022-11-19T19:56:30.716Z,12.70
2022-11-19T19:58:57.684Z,13.50
2022-11-19T20:01:26.258Z,14.20
2022-11-19T20:03:54.901Z,16.80
2022-11-19T20:06:23.139Z,15.20
2022-11-19T20:08:49.903Z,13.90
2022-11-19T20:11:21.266Z,14.50
2022-11-19T20:13:47.961Z,18.80
2022-11-19T20:16:18.517Z,22.80
2022-11-19T20:18:45.999Z,19.80
2022-11-19T20:21:14.046Z,20.00
2022-11-19T20:23:41.195Z,26.70
2022-11-19T20:26:11.287Z,20.80
2022-11-19T20:28:38.073Z,24.30
2022-11-19T20:31:17.904Z,27.40
2022-11-19T20:33:45.113Z,28.80
2022-11-19T20:36:14.821Z,27.30
2022-11-19T20:38:42.624Z,19.90
2022-11-19T20:41:30.820Z,17.00
2022-11-19T20:44:16.196Z,14.20
2022-11-19T20:46:43.071Z,13.20
2022-11-19T20:49:12.778Z,13.80
2022-11-19T20:51:42.717Z,14.60
2022-11-19T20:54:09.527Z,15.40
2022-11-19T20:56:36.602Z,16.50
2022-11-19T20:59:03.932Z,16.90
2022-11-19T21:01:34.062Z,13.40
2022-11-19T21:04:00.755Z,13.40
2022-11-19T21:06:27.640Z,15.30
2022-11-19T21:08:54.350Z,15.40
2022-11-19T21:11:21.073Z,14.20
2022-11-19T21:13:47.921Z,14.20
2022-11-19T21:16:18.835Z,14.40
2022-11-19T21:18:45.610Z,16.50
2022-11-19T21:21:13.423Z,16.70
2022-11-19T21:23:40.288Z,16.10
2022-11-19T21:26:16.382Z,14.90
2022-11-19T21:28:47.241Z,16.70
2022-11-19T21:31:17.669Z,16.60
2022-11-19T21:33:44.663Z,16.70
2022-11-19T21:36:12.515Z,18.00
2022-11-19T21:38:39.444Z,17.80
2022-11-19T21:41:06.470Z,16.10
2022-11-19T21:43:33.333Z,15.00
2022-11-19T21:45:59.946Z,14.40
2022-11-19T21:48:26.986Z,14.10
2022-11-19T21:50:53.782Z,14.20
2022-11-19T21:53:20.607Z,13.50
2022-11-19T21:55:47.484Z,13.50
2022-11-19T21:58:14.763Z,13.20
2022-11-19T22:00:41.605Z,15.70
2022-11-19T22:03:08.359Z,16.40
2022-11-19T22:05:35.253Z,16.30
2022-11-19T22:08:02.379Z,20.10
2022-11-19T22:10:29.562Z,25.30
2022-11-19T22:12:59.438Z,21.50
2022-11-19T22:15:26.614Z,20.30
2022-11-19T22:17:53.434Z,14.20
2022-11-19T22:20:20.137Z,13.20
2022-11-19T22:22:46.836Z,14.00
2022-11-19T22:25:13.881Z,16.00
2022-11-19T22:27:41.872Z,15.30
2022-11-19T22:30:10.221Z,16.00
2022-11-19T22:32:37.146Z,16.60
2022-11-19T22:35:04.468Z,16.40
2022-11-19T22:37:31.192Z,15.70
2022-11-19T22:39:57.881Z,16.30
2022-11-19T22:42:24.666Z,16.80
2022-11-19T22:44:51.606Z,15.30
2022-11-19T22:47:18.349Z,19.90
2022-11-19T22:49:45.038Z,17.70
2022-11-19T22:52:14.583Z,14.90
2022-11-19T22:54:41.946Z,15.90
2022-11-19T22:57:09.236Z,14.00
2022-11-19T22:59:35.955Z,16.30
2022-11-19T23:02:02.677Z,16.60
2022-11-19T23:04:29.405Z,14.80
2022-11-19T23:06:56.173Z,17.00
2022-11-19T23:09:23.371Z,16.30
2022-11-19T23:12:08.953Z,15.70
2022-11-19T23:14:35.624Z,17.80
2022-11-19T23:17:02.250Z,15.20
2022-11-19T23:19:28.922Z,14.40
2022-11-19T23:21:55.556Z,15.20
2022-11-19T23:24:22.317Z,16.10
2022-11-19T23:26:49.409Z,15.90
2022-11-19T23:29:16.138Z,15.20
2022-11-19T23:31:42.783Z,15.00
2022-11-19T23:34:09.409Z,16.70
2022-11-19T23:36:37.882Z,16.50
2022-11-19T23:39:05.416Z,20.00
2022-11-19T23:41:33.219Z,30.50
2022-11-19T23:43:59.925Z,20.20
2022-11-19T23:46:28.574Z,17.90
2022-11-19T23:48:55.952Z,17.20
2022-11-19T23:51:27.556Z,15.90
2022-11-19T23:53:54.392Z,17.80
2022-11-19T23:56:21.884Z,17.80
2022-11-19T23:58:48.659Z,19.30
